sensor_id;sensor_type;location;lat;lon;timestamp;pressure;altitude;pressure_sealevel;temperature;humidity
62436;BME280;48480;50.252;18.848;2023-04-27T00:00:56;98841.00;;;6.15;55.79
62436;BME280;48480;50.252;18.848;2023-04-27T00:03:41;98843.55;;;6.15;55.80
62436;BME280;48480;50.252;18.848;2023-04-27T00:06:25;98843.20;;;6.13;55.86
62436;BME280;48480;50.252;18.848;2023-04-27T00:09:11;98842.15;;;6.10;56.04
62436;BME280;48480;50.252;18.848;2023-04-27T00:11:55;98844.77;;;6.09;56.13
62436;BME280;48480;50.252;18.848;2023-04-27T00:14:39;98837.58;;;6.08;56.18
62436;BME280;48480;50.252;18.848;2023-04-27T00:17:23;98840.20;;;6.07;56.26
62436;BME280;48480;50.252;18.848;2023-04-27T00:20:09;98837.50;;;6.05;56.34
62436;BME280;48480;50.252;18.848;2023-04-27T00:22:54;98837.83;;;6.03;56.37
62436;BME280;48480;50.252;18.848;2023-04-27T00:25:40;98837.63;;;5.96;56.54
62436;BME280;48480;50.252;18.848;2023-04-27T00:28:25;98837.71;;;5.91;56.65
62436;BME280;48480;50.252;18.848;2023-04-27T00:31:08;98837.55;;;5.91;56.72
62436;BME280;48480;50.252;18.848;2023-04-27T00:33:53;98838.45;;;5.91;56.88
62436;BME280;48480;50.252;18.848;2023-04-27T00:36:38;98837.81;;;5.91;56.95
62436;BME280;48480;50.252;18.848;2023-04-27T00:39:22;98836.33;;;5.91;57.04
62436;BME280;48480;50.252;18.848;2023-04-27T00:42:07;98835.95;;;5.91;57.12
62436;BME280;48480;50.252;18.848;2023-04-27T00:44:56;98836.90;;;5.92;57.14
62436;BME280;48480;50.252;18.848;2023-04-27T00:47:42;98838.98;;;5.91;57.07
62436;BME280;48480;50.252;18.848;2023-04-27T00:50:27;98839.95;;;5.90;57.11
62436;BME280;48480;50.252;18.848;2023-04-27T00:53:13;98843.95;;;5.88;57.21
62436;BME280;48480;50.252;18.848;2023-04-27T00:55:57;98844.60;;;5.85;57.29
62436;BME280;48480;50.252;18.848;2023-04-27T00:58:41;98847.08;;;5.81;57.42
62436;BME280;48480;50.252;18.848;2023-04-27T01:01:25;98829.74;;;5.66;57.63
62436;BME280;48480;50.252;18.848;2023-04-27T01:04:09;98853.30;;;5.71;57.86
62436;BME280;48480;50.252;18.848;2023-04-27T01:06:53;98850.45;;;5.63;58.04
62436;BME280;48480;50.252;18.848;2023-04-27T01:09:38;98848.56;;;5.57;58.24
62436;BME280;48480;50.252;18.848;2023-04-27T01:12:22;98847.03;;;5.54;58.44
62436;BME280;48480;50.252;18.848;2023-04-27T01:15:06;98847.14;;;5.52;58.53
62436;BME280;48480;50.252;18.848;2023-04-27T01:17:58;98847.14;;;5.51;58.75
62436;BME280;48480;50.252;18.848;2023-04-27T01:20:43;98848.86;;;5.49;58.76
62436;BME280;48480;50.252;18.848;2023-04-27T01:23:27;98848.23;;;5.49;58.79
62436;BME280;48480;50.252;18.848;2023-04-27T01:26:12;98850.72;;;5.50;58.91
62436;BME280;48480;50.252;18.848;2023-04-27T01:28:59;98849.61;;;5.48;58.98
62436;BME280;48480;50.252;18.848;2023-04-27T01:31:43;98852.59;;;5.49;59.05
62436;BME280;48480;50.252;18.848;2023-04-27T01:34:27;98856.52;;;5.51;59.16
62436;BME280;48480;50.252;18.848;2023-04-27T01:37:11;98857.16;;;5.51;59.33
62436;BME280;48480;50.252;18.848;2023-04-27T01:39:55;98859.92;;;5.51;59.49
62436;BME280;48480;50.252;18.848;2023-04-27T01:42:40;98855.77;;;5.50;59.49
62436;BME280;48480;50.252;18.848;2023-04-27T01:45:25;98855.61;;;5.50;59.47
62436;BME280;48480;50.252;18.848;2023-04-27T01:48:09;98858.60;;;5.48;59.64
62436;BME280;48480;50.252;18.848;2023-04-27T01:50:54;98857.82;;;5.48;59.68
62436;BME280;48480;50.252;18.848;2023-04-27T01:53:40;98856.64;;;5.49;59.78
62436;BME280;48480;50.252;18.848;2023-04-27T01:56:24;98859.55;;;5.51;59.84
62436;BME280;48480;50.252;18.848;2023-04-27T01:59:08;98857.79;;;5.54;59.73
62436;BME280;48480;50.252;18.848;2023-04-27T02:01:53;98859.86;;;5.55;59.72
62436;BME280;48480;50.252;18.848;2023-04-27T02:04:37;98859.63;;;5.59;59.82
62436;BME280;48480;50.252;18.848;2023-04-27T02:07:21;98859.20;;;5.61;59.77
62436;BME280;48480;50.252;18.848;2023-04-27T02:10:06;98863.18;;;5.63;59.75
62436;BME280;48480;50.252;18.848;2023-04-27T02:12:50;98862.16;;;5.65;59.63
62436;BME280;48480;50.252;18.848;2023-04-27T02:15:34;98860.87;;;5.66;59.64
62436;BME280;48480;50.252;18.848;2023-04-27T02:18:18;98860.77;;;5.67;59.55
62436;BME280;48480;50.252;18.848;2023-04-27T02:21:07;98857.70;;;5.67;59.65
62436;BME280;48480;50.252;18.848;2023-04-27T02:23:52;98856.56;;;5.68;59.69
62436;BME280;48480;50.252;18.848;2023-04-27T02:26:36;98856.71;;;5.68;59.84
62436;BME280;48480;50.252;18.848;2023-04-27T02:29:20;98859.01;;;5.68;59.92
62436;BME280;48480;50.252;18.848;2023-04-27T02:32:05;98856.52;;;5.68;59.91
62436;BME280;48480;50.252;18.848;2023-04-27T02:34:49;98856.98;;;5.66;59.92
62436;BME280;48480;50.252;18.848;2023-04-27T02:37:33;98858.64;;;5.66;59.92
62436;BME280;48480;50.252;18.848;2023-04-27T02:40:18;98860.92;;;5.66;59.89
62436;BME280;48480;50.252;18.848;2023-04-27T02:43:02;98860.61;;;5.63;60.01
62436;BME280;48480;50.252;18.848;2023-04-27T02:45:47;98862.06;;;5.61;60.06
62436;BME280;48480;50.252;18.848;2023-04-27T02:48:31;98860.00;;;5.59;60.17
62436;BME280;48480;50.252;18.848;2023-04-27T02:51:16;98859.27;;;5.57;60.17
62436;BME280;48480;50.252;18.848;2023-04-27T02:54:00;98856.14;;;5.54;60.27
62436;BME280;48480;50.252;18.848;2023-04-27T02:56:44;98858.02;;;5.53;60.41
62436;BME280;48480;50.252;18.848;2023-04-27T02:59:28;98856.96;;;5.47;60.43
62436;BME280;48480;50.252;18.848;2023-04-27T03:02:13;98856.50;;;5.40;60.53
62436;BME280;48480;50.252;18.848;2023-04-27T03:04:57;98860.14;;;5.31;60.67
62436;BME280;48480;50.252;18.848;2023-04-27T03:07:42;98861.77;;;5.25;60.90
62436;BME280;48480;50.252;18.848;2023-04-27T03:10:26;98860.33;;;5.23;60.99
62436;BME280;48480;50.252;18.848;2023-04-27T03:13:10;98864.86;;;5.23;61.04
62436;BME280;48480;50.252;18.848;2023-04-27T03:15:55;98866.81;;;5.24;61.09
62436;BME280;48480;50.252;18.848;2023-04-27T03:18:39;98870.55;;;5.24;61.16
62436;BME280;48480;50.252;18.848;2023-04-27T03:21:23;98872.25;;;5.21;61.20
62436;BME280;48480;50.252;18.848;2023-04-27T03:24:07;98875.52;;;5.19;61.16
62436;BME280;48480;50.252;18.848;2023-04-27T03:26:51;98870.73;;;5.12;61.21
62436;BME280;48480;50.252;18.848;2023-04-27T03:29:35;98878.02;;;5.16;61.27
62436;BME280;48480;50.252;18.848;2023-04-27T03:32:19;98880.83;;;5.15;61.22
62436;BME280;48480;50.252;18.848;2023-04-27T03:35:04;98881.73;;;5.13;61.06
62436;BME280;48480;50.252;18.848;2023-04-27T03:37:48;98882.38;;;5.08;61.19
62436;BME280;48480;50.252;18.848;2023-04-27T03:40:32;98879.45;;;5.06;61.40
62436;BME280;48480;50.252;18.848;2023-04-27T03:43:17;98883.13;;;5.09;61.42
62436;BME280;48480;50.252;18.848;2023-04-27T03:46:01;98886.00;;;5.09;61.40
62436;BME280;48480;50.252;18.848;2023-04-27T03:48:45;98888.18;;;5.08;61.51
62436;BME280;48480;50.252;18.848;2023-04-27T03:51:30;98887.54;;;5.07;61.51
62436;BME280;48480;50.252;18.848;2023-04-27T03:54:17;98890.35;;;5.08;61.62
62436;BME280;48480;50.252;18.848;2023-04-27T03:57:01;98893.17;;;5.08;61.66
62436;BME280;48480;50.252;18.848;2023-04-27T03:59:47;98897.80;;;5.09;61.77
62436;BME280;48480;50.252;18.848;2023-04-27T04:02:31;98901.05;;;5.14;61.92
62436;BME280;48480;50.252;18.848;2023-04-27T04:05:16;98895.66;;;5.15;61.87
62436;BME280;48480;50.252;18.848;2023-04-27T04:08:00;98906.02;;;5.26;61.89
62436;BME280;48480;50.252;18.848;2023-04-27T04:10:44;98909.35;;;5.32;61.85
62436;BME280;48480;50.252;18.848;2023-04-27T04:13:28;98908.08;;;5.36;61.79
62436;BME280;48480;50.252;18.848;2023-04-27T04:16:12;98912.67;;;5.41;61.76
62436;BME280;48480;50.252;18.848;2023-04-27T04:18:56;98910.34;;;5.45;61.64
62436;BME280;48480;50.252;18.848;2023-04-27T04:21:40;98912.23;;;5.52;61.61
62436;BME280;48480;50.252;18.848;2023-04-27T04:24:25;98914.45;;;5.60;61.42
62436;BME280;48480;50.252;18.848;2023-04-27T04:27:09;98913.73;;;5.64;61.23
62436;BME280;48480;50.252;18.848;2023-04-27T04:29:53;98917.94;;;5.67;61.12
62436;BME280;48480;50.252;18.848;2023-04-27T04:32:38;98918.71;;;5.72;61.10
62436;BME280;48480;50.252;18.848;2023-04-27T04:35:22;98924.44;;;5.78;61.09
62436;BME280;48480;50.252;18.848;2023-04-27T04:38:06;98924.73;;;5.87;60.96
62436;BME280;48480;50.252;18.848;2023-04-27T04:41:00;98926.46;;;5.96;60.83
62436;BME280;48480;50.252;18.848;2023-04-27T04:43:45;98926.38;;;6.06;60.68
62436;BME280;48480;50.252;18.848;2023-04-27T04:46:34;98929.14;;;6.12;60.58
62436;BME280;48480;50.252;18.848;2023-04-27T04:49:19;98936.05;;;6.20;60.35
62436;BME280;48480;50.252;18.848;2023-04-27T05:00:20;98944.09;;;6.42;59.69
62436;BME280;48480;50.252;18.848;2023-04-27T05:03:04;98943.02;;;6.45;59.52
62436;BME280;48480;50.252;18.848;2023-04-27T05:05:47;98944.34;;;6.47;59.53
62436;BME280;48480;50.252;18.848;2023-04-27T05:08:31;98947.99;;;6.50;59.48
62436;BME280;48480;50.252;18.848;2023-04-27T05:11:22;98944.21;;;6.51;59.43
62436;BME280;48480;50.252;18.848;2023-04-27T05:14:07;98946.02;;;6.51;59.52
62436;BME280;48480;50.252;18.848;2023-04-27T05:19:29;98950.69;;;6.47;59.53
62436;BME280;48480;50.252;18.848;2023-04-27T05:22:14;98955.88;;;6.42;59.66
62436;BME280;48480;50.252;18.848;2023-04-27T05:24:57;98960.47;;;6.40;59.76
62436;BME280;48480;50.252;18.848;2023-04-27T05:27:42;98963.56;;;6.42;59.87
62436;BME280;48480;50.252;18.848;2023-04-27T05:30:32;98963.46;;;6.38;59.93
62436;BME280;48480;50.252;18.848;2023-04-27T05:33:16;98962.44;;;6.50;59.60
62436;BME280;48480;50.252;18.848;2023-04-27T05:38:54;98961.61;;;8.68;55.99
62436;BME280;48480;50.252;18.848;2023-04-27T05:44:15;98966.76;;;10.76;52.23
62436;BME280;48480;50.252;18.848;2023-04-27T05:47:00;98965.86;;;11.73;50.24
62436;BME280;48480;50.252;18.848;2023-04-27T05:49:43;98965.63;;;12.65;47.92
62436;BME280;48480;50.252;18.848;2023-04-27T05:55:18;98971.46;;;14.23;44.17
62436;BME280;48480;50.252;18.848;2023-04-27T06:00:47;98972.52;;;15.35;41.38
62436;BME280;48480;50.252;18.848;2023-04-27T06:03:31;98969.93;;;15.93;40.07
62436;BME280;48480;50.252;18.848;2023-04-27T06:06:16;98974.08;;;16.39;38.55
62436;BME280;48480;50.252;18.848;2023-04-27T06:09:00;98973.19;;;16.54;37.56
62436;BME280;48480;50.252;18.848;2023-04-27T06:11:44;98973.65;;;16.83;37.05
62436;BME280;48480;50.252;18.848;2023-04-27T06:14:31;98973.38;;;17.18;36.05
62436;BME280;48480;50.252;18.848;2023-04-27T06:17:15;98974.08;;;17.51;35.57
62436;BME280;48480;50.252;18.848;2023-04-27T06:22:51;98973.06;;;18.08;33.71
62436;BME280;48480;50.252;18.848;2023-04-27T06:28:33;98974.02;;;17.96;32.37
62436;BME280;48480;50.252;18.848;2023-04-27T06:31:21;98975.98;;;18.03;32.05
62436;BME280;48480;50.252;18.848;2023-04-27T06:34:06;98979.10;;;18.07;31.50
62436;BME280;48480;50.252;18.848;2023-04-27T06:36:50;98976.73;;;17.98;31.20
62436;BME280;48480;50.252;18.848;2023-04-27T06:39:41;98976.55;;;18.08;30.99
62436;BME280;48480;50.252;18.848;2023-04-27T06:42:26;98982.22;;;18.18;30.53
62436;BME280;48480;50.252;18.848;2023-04-27T06:45:10;98961.84;;;17.85;30.69
62436;BME280;48480;50.252;18.848;2023-04-27T06:47:56;98983.68;;;17.94;30.57
62436;BME280;48480;50.252;18.848;2023-04-27T06:50:33;98986.47;;;17.87;30.68
62436;BME280;48480;50.252;18.848;2023-04-27T06:53:17;98988.48;;;17.82;30.92
62436;BME280;48480;50.252;18.848;2023-04-27T06:56:09;98988.11;;;18.08;30.76
62436;BME280;48480;50.252;18.848;2023-04-27T06:58:54;98984.19;;;18.22;30.27
62436;BME280;48480;50.252;18.848;2023-04-27T07:04:29;98986.37;;;18.58;29.72
62436;BME280;48480;50.252;18.848;2023-04-27T07:10:06;98987.08;;;18.81;29.00
62436;BME280;48480;50.252;18.848;2023-04-27T07:15:45;98992.06;;;19.21;28.37
62436;BME280;48480;50.252;18.848;2023-04-27T07:23:56;98985.79;;;19.44;27.68
62436;BME280;48480;50.252;18.848;2023-04-27T07:26:41;98986.61;;;19.33;27.52
62436;BME280;48480;50.252;18.848;2023-04-27T07:29:25;98987.58;;;19.35;27.26
62436;BME280;48480;50.252;18.848;2023-04-27T07:32:11;98985.78;;;19.17;27.34
62436;BME280;48480;50.252;18.848;2023-04-27T07:34:54;98988.29;;;18.68;27.74
62436;BME280;48480;50.252;18.848;2023-04-27T07:37:39;98983.38;;;18.01;28.33
62436;BME280;48480;50.252;18.848;2023-04-27T07:40:24;98987.16;;;17.27;28.81
62436;BME280;48480;50.252;18.848;2023-04-27T07:43:09;98984.61;;;16.77;29.32
62436;BME280;48480;50.252;18.848;2023-04-27T07:45:53;98980.21;;;16.40;29.69
62436;BME280;48480;50.252;18.848;2023-04-27T07:48:38;98977.32;;;16.12;29.88
62436;BME280;48480;50.252;18.848;2023-04-27T07:51:22;98980.55;;;15.84;29.90
62436;BME280;48480;50.252;18.848;2023-04-27T07:54:07;98984.13;;;15.57;30.27
62436;BME280;48480;50.252;18.848;2023-04-27T07:59:41;98986.23;;;14.79;30.09
62436;BME280;48480;50.252;18.848;2023-04-27T08:02:26;98985.64;;;14.82;30.30
62436;BME280;48480;50.252;18.848;2023-04-27T08:05:29;98987.61;;;15.11;29.92
62436;BME280;48480;50.252;18.848;2023-04-27T08:08:14;98985.38;;;15.09;29.97
62436;BME280;48480;50.252;18.848;2023-04-27T08:10:58;98987.79;;;15.01;30.27
62436;BME280;48480;50.252;18.848;2023-04-27T08:13:44;98991.58;;;14.82;30.40
62436;BME280;48480;50.252;18.848;2023-04-27T08:16:28;98988.55;;;14.39;30.70
62436;BME280;48480;50.252;18.848;2023-04-27T08:19:16;98987.95;;;13.88;31.22
62436;BME280;48480;50.252;18.848;2023-04-27T08:22:07;98989.23;;;13.44;31.73
62436;BME280;48480;50.252;18.848;2023-04-27T08:27:27;98990.88;;;13.01;32.82
62436;BME280;48480;50.252;18.848;2023-04-27T08:30:11;98992.37;;;13.06;32.61
62436;BME280;48480;50.252;18.848;2023-04-27T08:33:03;98987.36;;;13.03;32.42
62436;BME280;48480;50.252;18.848;2023-04-27T08:35:47;98989.68;;;12.97;32.70
62436;BME280;48480;50.252;18.848;2023-04-27T08:41:24;98993.96;;;12.94;33.37
62436;BME280;48480;50.252;18.848;2023-04-27T08:44:09;98992.41;;;13.28;32.68
62436;BME280;48480;50.252;18.848;2023-04-27T08:46:58;98986.97;;;13.79;32.43
62436;BME280;48480;50.252;18.848;2023-04-27T08:49:43;98985.80;;;14.35;31.58
62436;BME280;48480;50.252;18.848;2023-04-27T08:52:28;98986.10;;;14.82;30.99
62436;BME280;48480;50.252;18.848;2023-04-27T08:55:13;98983.78;;;15.06;30.27
62436;BME280;48480;50.252;18.848;2023-04-27T08:57:57;98989.23;;;14.97;30.55
62436;BME280;48480;50.252;18.848;2023-04-27T09:00:43;98991.61;;;14.58;30.84
62436;BME280;48480;50.252;18.848;2023-04-27T09:03:28;98994.00;;;14.08;31.25
62436;BME280;48480;50.252;18.848;2023-04-27T09:06:13;98996.16;;;13.68;31.80
62436;BME280;48480;50.252;18.848;2023-04-27T09:09:01;99000.95;;;13.37;32.40
62436;BME280;48480;50.252;18.848;2023-04-27T09:11:46;99001.98;;;13.20;32.77
62436;BME280;48480;50.252;18.848;2023-04-27T09:14:31;99003.58;;;13.09;32.56
62436;BME280;48480;50.252;18.848;2023-04-27T09:17:25;98999.66;;;12.93;32.34
62436;BME280;48480;50.252;18.848;2023-04-27T09:20:10;98997.23;;;12.76;32.35
62436;BME280;48480;50.252;18.848;2023-04-27T09:23:01;98999.39;;;12.64;32.78
62436;BME280;48480;50.252;18.848;2023-04-27T09:25:55;99002.99;;;12.52;33.10
62436;BME280;48480;50.252;18.848;2023-04-27T09:28:39;98998.89;;;12.40;33.66
62436;BME280;48480;50.252;18.848;2023-04-27T09:31:34;98992.89;;;12.36;33.74
62436;BME280;48480;50.252;18.848;2023-04-27T09:34:19;98997.23;;;12.35;33.87
62436;BME280;48480;50.252;18.848;2023-04-27T09:37:04;98996.33;;;12.42;34.26
62436;BME280;48480;50.252;18.848;2023-04-27T09:39:49;98993.63;;;12.42;33.93
62436;BME280;48480;50.252;18.848;2023-04-27T09:42:34;98992.91;;;12.42;33.79
62436;BME280;48480;50.252;18.848;2023-04-27T09:45:20;98986.35;;;12.58;33.27
62436;BME280;48480;50.252;18.848;2023-04-27T09:48:06;98987.83;;;13.00;32.91
62436;BME280;48480;50.252;18.848;2023-04-27T09:50:51;98985.21;;;13.58;32.48
62436;BME280;48480;50.252;18.848;2023-04-27T09:53:39;98987.38;;;13.83;31.49
62436;BME280;48480;50.252;18.848;2023-04-27T10:00:05;98984.24;;;13.68;30.75
62436;BME280;48480;50.252;18.848;2023-04-27T10:03:03;98988.73;;;13.26;31.85
62436;BME280;48480;50.252;18.848;2023-04-27T10:09:12;98997.48;;;12.49;33.04
62436;BME280;48480;50.252;18.848;2023-04-27T10:12:12;98997.05;;;12.23;33.18
62436;BME280;48480;50.252;18.848;2023-04-27T10:14:59;98997.71;;;12.01;33.17
62436;BME280;48480;50.252;18.848;2023-04-27T10:17:49;98994.95;;;11.87;33.91
62436;BME280;48480;50.252;18.848;2023-04-27T10:20:35;98996.42;;;11.78;34.61
62436;BME280;48480;50.252;18.848;2023-04-27T10:23:24;99000.65;;;11.75;34.88
62436;BME280;48480;50.252;18.848;2023-04-27T10:26:09;99006.57;;;11.77;34.88
62436;BME280;48480;50.252;18.848;2023-04-27T10:29:12;99007.69;;;11.75;35.01
62436;BME280;48480;50.252;18.848;2023-04-27T10:32:05;99001.25;;;11.68;34.98
62436;BME280;48480;50.252;18.848;2023-04-27T10:34:50;99003.88;;;11.64;34.76
62436;BME280;48480;50.252;18.848;2023-04-27T10:37:39;98997.05;;;11.64;34.44
62436;BME280;48480;50.252;18.848;2023-04-27T10:40:31;98991.71;;;11.65;33.94
62436;BME280;48480;50.252;18.848;2023-04-27T10:43:16;98993.87;;;11.65;34.30
62436;BME280;48480;50.252;18.848;2023-04-27T10:46:08;98996.52;;;11.72;34.61
62436;BME280;48480;50.252;18.848;2023-04-27T10:48:54;98996.92;;;11.82;34.89
62436;BME280;48480;50.252;18.848;2023-04-27T10:51:38;98977.23;;;11.83;34.60
62436;BME280;48480;50.252;18.848;2023-04-27T10:54:27;98985.90;;;11.98;34.51
62436;BME280;48480;50.252;18.848;2023-04-27T10:57:12;98998.05;;;12.20;34.26
62436;BME280;48480;50.252;18.848;2023-04-27T10:59:57;98997.93;;;12.22;34.63
62436;BME280;48480;50.252;18.848;2023-04-27T11:02:41;99000.45;;;12.15;34.40
62436;BME280;48480;50.252;18.848;2023-04-27T11:05:26;98997.24;;;12.04;34.45
62436;BME280;48480;50.252;18.848;2023-04-27T11:08:18;98995.71;;;11.98;34.35
62436;BME280;48480;50.252;18.848;2023-04-27T11:11:03;98997.90;;;11.85;34.61
62436;BME280;48480;50.252;18.848;2023-04-27T11:13:49;99007.59;;;11.79;35.19
62436;BME280;48480;50.252;18.848;2023-04-27T11:16:46;99009.00;;;11.84;35.45
62436;BME280;48480;50.252;18.848;2023-04-27T11:19:31;99008.27;;;11.83;35.40
62436;BME280;48480;50.252;18.848;2023-04-27T11:22:16;99014.58;;;11.77;35.60
62436;BME280;48480;50.252;18.848;2023-04-27T11:25:01;99011.16;;;11.72;35.53
62436;BME280;48480;50.252;18.848;2023-04-27T11:27:46;99009.85;;;11.75;35.67
62436;BME280;48480;50.252;18.848;2023-04-27T11:30:30;99010.39;;;11.75;35.68
62436;BME280;48480;50.252;18.848;2023-04-27T11:36:17;99001.21;;;11.80;35.85
62436;BME280;48480;50.252;18.848;2023-04-27T11:39:02;99008.90;;;11.94;35.72
62436;BME280;48480;50.252;18.848;2023-04-27T11:41:49;99011.23;;;12.04;35.45
62436;BME280;48480;50.252;18.848;2023-04-27T11:44:33;99011.48;;;12.16;34.86
62436;BME280;48480;50.252;18.848;2023-04-27T11:47:16;99009.23;;;12.24;34.65
62436;BME280;48480;50.252;18.848;2023-04-27T11:50:06;99006.88;;;12.33;34.62
62436;BME280;48480;50.252;18.848;2023-04-27T11:52:51;99009.91;;;12.47;34.28
62436;BME280;48480;50.252;18.848;2023-04-27T11:55:36;99005.64;;;12.63;33.53
62436;BME280;48480;50.252;18.848;2023-04-27T11:58:23;99004.41;;;12.86;33.11
62436;BME280;48480;50.252;18.848;2023-04-27T12:01:15;99003.17;;;12.99;32.64
62436;BME280;48480;50.252;18.848;2023-04-27T12:04:00;99004.76;;;13.05;32.55
62436;BME280;48480;50.252;18.848;2023-04-27T12:06:45;99005.72;;;13.14;32.25
62436;BME280;48480;50.252;18.848;2023-04-27T12:09:30;99011.73;;;13.21;32.02
62436;BME280;48480;50.252;18.848;2023-04-27T12:12:14;99006.91;;;13.23;31.75
62436;BME280;48480;50.252;18.848;2023-04-27T12:15:01;99004.14;;;13.18;31.58
62436;BME280;48480;50.252;18.848;2023-04-27T12:17:45;99001.80;;;13.08;31.59
62436;BME280;48480;50.252;18.848;2023-04-27T12:20:33;99000.36;;;12.98;31.54
62436;BME280;48480;50.252;18.848;2023-04-27T12:23:19;99000.77;;;12.85;31.74
62436;BME280;48480;50.252;18.848;2023-04-27T12:26:03;99001.81;;;12.77;31.87
62436;BME280;48480;50.252;18.848;2023-04-27T12:28:47;99001.11;;;12.77;31.56
62436;BME280;48480;50.252;18.848;2023-04-27T12:31:31;99001.61;;;12.80;31.70
62436;BME280;48480;50.252;18.848;2023-04-27T12:34:16;99002.16;;;12.90;31.92
62436;BME280;48480;50.252;18.848;2023-04-27T12:37:01;99001.34;;;13.01;32.12
62436;BME280;48480;50.252;18.848;2023-04-27T12:39:45;98997.91;;;13.11;32.22
62436;BME280;48480;50.252;18.848;2023-04-27T12:42:30;99001.52;;;13.21;32.03
62436;BME280;48480;50.252;18.848;2023-04-27T12:48:05;98996.27;;;13.21;32.27
62436;BME280;48480;50.252;18.848;2023-04-27T12:53:41;98998.45;;;13.29;32.78
62436;BME280;48480;50.252;18.848;2023-04-27T12:59:04;98992.08;;;13.41;32.93
62436;BME280;48480;50.252;18.848;2023-04-27T13:01:50;98995.84;;;13.51;32.80
62436;BME280;48480;50.252;18.848;2023-04-27T13:04:31;98997.52;;;13.50;32.69
62436;BME280;48480;50.252;18.848;2023-04-27T13:07:15;98972.42;;;13.28;32.23
62436;BME280;48480;50.252;18.848;2023-04-27T13:10:06;98993.38;;;13.41;32.63
62436;BME280;48480;50.252;18.848;2023-04-27T13:12:51;98991.91;;;13.49;32.44
62436;BME280;48480;50.252;18.848;2023-04-27T13:18:28;98990.52;;;13.39;32.21
62436;BME280;48480;50.252;18.848;2023-04-27T13:24:06;98991.91;;;13.09;32.41
62436;BME280;48480;50.252;18.848;2023-04-27T13:29:43;98997.17;;;13.03;32.82
62436;BME280;48480;50.252;18.848;2023-04-27T13:35:21;98996.17;;;13.13;33.27
62436;BME280;48480;50.252;18.848;2023-04-27T13:38:16;98995.52;;;13.07;33.12
62436;BME280;48480;50.252;18.848;2023-04-27T13:41:01;98992.28;;;13.00;33.10
62436;BME280;48480;50.252;18.848;2023-04-27T13:49:33;99003.89;;;12.65;33.25
62436;BME280;48480;50.252;18.848;2023-04-27T13:52:17;99002.11;;;12.55;33.34
62436;BME280;48480;50.252;18.848;2023-04-27T13:57:56;99005.35;;;12.45;33.59
62436;BME280;48480;50.252;18.848;2023-04-27T14:00:51;99007.27;;;12.34;33.67
62436;BME280;48480;50.252;18.848;2023-04-27T14:03:36;99014.23;;;12.28;33.92
62436;BME280;48480;50.252;18.848;2023-04-27T14:08:58;99009.30;;;12.22;34.10
62436;BME280;48480;50.252;18.848;2023-04-27T14:11:43;99007.88;;;12.23;34.30
62436;BME280;48480;50.252;18.848;2023-04-27T14:17:14;99002.41;;;12.30;34.19
62436;BME280;48480;50.252;18.848;2023-04-27T14:19:58;99002.83;;;12.41;34.23
62436;BME280;48480;50.252;18.848;2023-04-27T14:22:42;99007.25;;;12.39;33.64
62436;BME280;48480;50.252;18.848;2023-04-27T14:28:17;99010.05;;;12.32;33.98
62436;BME280;48480;50.252;18.848;2023-04-27T14:33:40;99012.70;;;12.29;33.15
62436;BME280;48480;50.252;18.848;2023-04-27T14:36:24;99016.47;;;12.23;33.40
62436;BME280;48480;50.252;18.848;2023-04-27T14:39:08;99017.21;;;12.23;33.63
62436;BME280;48480;50.252;18.848;2023-04-27T14:41:53;99015.73;;;12.26;33.84
62436;BME280;48480;50.252;18.848;2023-04-27T14:53:05;99016.83;;;12.14;33.83
62436;BME280;48480;50.252;18.848;2023-04-27T14:58:44;99017.38;;;12.00;33.75
62436;BME280;48480;50.252;18.848;2023-04-27T15:04:09;99026.94;;;11.90;35.34
62436;BME280;48480;50.252;18.848;2023-04-27T15:06:54;99024.14;;;11.83;35.73
62436;BME280;48480;50.252;18.848;2023-04-27T15:09:34;99027.27;;;11.75;36.00
62436;BME280;48480;50.252;18.848;2023-04-27T15:12:19;99032.95;;;11.66;36.44
62436;BME280;48480;50.252;18.848;2023-04-27T15:15:09;99032.10;;;11.60;36.69
62436;BME280;48480;50.252;18.848;2023-04-27T15:17:53;99040.58;;;11.61;36.87
62436;BME280;48480;50.252;18.848;2023-04-27T15:23:29;99041.27;;;11.59;36.70
62436;BME280;48480;50.252;18.848;2023-04-27T15:26:24;99039.29;;;11.52;36.80
62436;BME280;48480;50.252;18.848;2023-04-27T15:29:08;99034.67;;;11.47;36.95
62436;BME280;48480;50.252;18.848;2023-04-27T15:31:57;99036.64;;;11.50;37.09
62436;BME280;48480;50.252;18.848;2023-04-27T15:34:50;99035.27;;;11.53;37.05
62436;BME280;48480;50.252;18.848;2023-04-27T15:37:40;99036.12;;;11.52;36.95
62436;BME280;48480;50.252;18.848;2023-04-27T15:40:24;99036.08;;;11.51;36.88
62436;BME280;48480;50.252;18.848;2023-04-27T15:43:16;99034.85;;;11.51;37.03
62436;BME280;48480;50.252;18.848;2023-04-27T15:46:02;99036.00;;;11.52;37.02
62436;BME280;48480;50.252;18.848;2023-04-27T15:48:57;99037.48;;;11.55;36.97
62436;BME280;48480;50.252;18.848;2023-04-27T15:51:42;99038.95;;;11.54;37.22
62436;BME280;48480;50.252;18.848;2023-04-27T15:54:26;99037.38;;;11.55;37.03
62436;BME280;48480;50.252;18.848;2023-04-27T15:57:11;99040.76;;;11.60;36.86
62436;BME280;48480;50.252;18.848;2023-04-27T15:59:54;99039.17;;;11.65;36.97
62436;BME280;48480;50.252;18.848;2023-04-27T16:02:39;99041.90;;;11.69;37.00
62436;BME280;48480;50.252;18.848;2023-04-27T16:05:23;99039.48;;;11.76;36.87
62436;BME280;48480;50.252;18.848;2023-04-27T16:08:07;99040.45;;;11.80;36.78
62436;BME280;48480;50.252;18.848;2023-04-27T16:10:52;99038.45;;;11.85;36.79
62436;BME280;48480;50.252;18.848;2023-04-27T16:13:36;99039.42;;;11.86;36.72
62436;BME280;48480;50.252;18.848;2023-04-27T16:16:31;99043.59;;;11.91;36.67
62436;BME280;48480;50.252;18.848;2023-04-27T16:22:07;99041.73;;;11.98;36.73
62436;BME280;48480;50.252;18.848;2023-04-27T16:24:57;99037.09;;;12.01;36.99
62436;BME280;48480;50.252;18.848;2023-04-27T16:27:42;99035.95;;;11.99;36.96